createdAt,value
2023-02-11T00:01:20.914Z,16.85
2023-02-11T00:03:48.447Z,21.70
2023-02-11T00:06:16.490Z,21.17
2023-02-11T00:08:43.986Z,21.65
2023-02-11T00:11:17.038Z,23.02
2023-02-11T00:13:45.693Z,22.88
2023-02-11T00:16:16.023Z,21.75
2023-02-11T00:18:43.615Z,20.35
2023-02-11T00:21:14.649Z,25.88
2023-02-11T00:23:42.749Z,22.80
2023-02-11T00:26:21.842Z,21.88
2023-02-11T00:28:50.820Z,24.33
2023-02-11T00:31:20.709Z,25.17
2023-02-11T00:33:49.618Z,23.45
2023-02-11T00:36:21.227Z,21.45
2023-02-11T00:38:50.133Z,25.67
2023-02-11T00:41:18.622Z,22.10
2023-02-11T00:43:46.847Z,20.70
2023-02-11T00:46:15.386Z,20.67
2023-02-11T00:48:43.426Z,21.55
2023-02-11T00:51:11.772Z,21.67
2023-02-11T00:53:39.445Z,19.00
2023-02-11T00:56:08.814Z,19.67
2023-02-11T00:58:37.037Z,17.15
2023-02-11T01:01:05.045Z,19.27
2023-02-11T01:03:32.612Z,16.23
2023-02-11T01:06:00.259Z,21.42
2023-02-11T01:08:27.913Z,19.67
2023-02-11T01:11:00.506Z,18.10
2023-02-11T01:13:29.592Z,21.17
2023-02-11T01:15:57.264Z,20.77
2023-02-11T01:18:25.452Z,18.35
2023-02-11T01:20:53.937Z,21.50
2023-02-11T01:23:22.022Z,22.50
2023-02-11T01:30:46.716Z,19.52
2023-02-11T01:33:14.825Z,23.42
2023-02-11T01:35:42.849Z,24.95
2023-02-11T01:38:21.618Z,22.15
2023-02-11T01:40:55.538Z,23.15
2023-02-11T01:43:24.844Z,28.95
2023-02-11T01:46:02.610Z,27.08
2023-02-11T01:48:36.312Z,29.10
2023-02-11T01:51:08.988Z,23.65
2023-02-11T01:53:56.490Z,27.98
2023-02-11T01:56:46.123Z,29.48
2023-02-11T01:59:24.340Z,29.90
2023-02-11T02:01:58.812Z,28.08
2023-02-11T02:04:31.715Z,27.35
2023-02-11T02:07:11.780Z,27.15
2023-02-11T02:09:44.765Z,29.95
2023-02-11T02:12:12.234Z,32.42
2023-02-11T02:14:41.777Z,26.38
2023-02-11T02:17:24.006Z,26.50
2023-02-11T02:20:30.447Z,29.35
2023-02-11T02:23:23.491Z,26.27
2023-02-11T02:25:59.963Z,29.30
2023-02-11T02:28:42.519Z,30.98
2023-02-11T02:31:40.320Z,26.55
2023-02-11T02:36:55.422Z,28.02
2023-02-11T02:39:27.764Z,27.92
2023-02-11T02:41:56.624Z,27.70
2023-02-11T02:44:24.616Z,29.25
2023-02-11T02:46:52.389Z,24.65
2023-02-11T02:49:19.848Z,25.00
2023-02-11T02:52:02.755Z,28.38
2023-02-11T02:54:48.361Z,26.45
2023-02-11T02:57:30.577Z,27.42
2023-02-11T03:00:11.997Z,28.75
2023-02-11T03:03:02.174Z,29.25
2023-02-11T03:05:38.154Z,27.63
2023-02-11T03:08:28.031Z,28.77
2023-02-11T03:10:57.512Z,26.98
2023-02-11T03:13:29.631Z,25.90
2023-02-11T03:15:59.116Z,26.67
2023-02-11T03:18:29.439Z,26.33
2023-02-11T03:20:58.041Z,28.85
2023-02-11T03:23:32.988Z,25.38
2023-02-11T03:26:12.354Z,28.42
2023-02-11T03:28:50.962Z,25.88
2023-02-11T03:31:37.085Z,27.52
2023-02-11T03:34:18.301Z,29.75
2023-02-11T03:36:52.060Z,28.65
2023-02-11T03:39:34.945Z,26.92
2023-02-11T03:42:04.034Z,28.23
2023-02-11T03:44:38.933Z,30.42
2023-02-11T03:47:09.418Z,32.90
2023-02-11T03:49:39.841Z,29.17
2023-02-11T03:52:11.236Z,29.42
2023-02-11T03:54:40.797Z,31.65
2023-02-11T03:57:08.989Z,29.65
2023-02-11T03:59:56.842Z,32.05
2023-02-11T04:02:31.742Z,33.30
2023-02-11T04:04:59.450Z,35.53
2023-02-11T04:07:27.248Z,31.45
2023-02-11T04:09:54.948Z,37.42
2023-02-11T04:12:22.434Z,37.00
2023-02-11T04:14:49.877Z,39.15
2023-02-11T04:17:17.608Z,39.22
2023-02-11T04:19:45.279Z,37.22
2023-02-11T04:22:13.078Z,33.65
2023-02-11T04:24:40.473Z,39.78
2023-02-11T04:27:07.854Z,37.10
2023-02-11T04:29:35.448Z,36.03
2023-02-11T04:32:02.989Z,33.28
2023-02-11T04:34:30.515Z,40.78
2023-02-11T04:36:57.972Z,38.03
2023-02-11T04:39:25.506Z,37.15
2023-02-11T04:41:52.977Z,40.75
2023-02-11T04:44:20.459Z,35.60
2023-02-11T04:46:48.249Z,35.83
2023-02-11T04:49:16.523Z,33.55
2023-02-11T04:51:46.993Z,31.60
2023-02-11T04:54:17.023Z,32.10
2023-02-11T04:59:13.279Z,32.58
2023-02-11T05:01:40.909Z,32.75
2023-02-11T05:04:08.837Z,29.60
2023-02-11T05:06:39.437Z,28.95
2023-02-11T05:09:06.994Z,28.50
2023-02-11T05:11:34.555Z,31.75
2023-02-11T05:14:02.053Z,28.48
2023-02-11T05:16:29.524Z,26.70
2023-02-11T05:18:57.092Z,24.13
2023-02-11T05:21:24.841Z,25.17
2023-02-11T05:23:52.285Z,27.73
2023-02-11T05:26:19.707Z,25.00
2023-02-11T05:28:47.127Z,25.02
2023-02-11T05:31:14.963Z,26.25
2023-02-11T05:33:42.953Z,24.77
2023-02-11T05:36:13.189Z,23.10
2023-02-11T05:38:42.531Z,25.30
2023-02-11T05:41:11.118Z,22.35
2023-02-11T05:43:38.651Z,25.60
2023-02-11T05:46:06.424Z,26.15
2023-02-11T05:48:33.944Z,26.92
2023-02-11T05:51:01.397Z,21.73
2023-02-11T05:53:28.860Z,26.13
2023-02-11T05:55:56.323Z,22.00
2023-02-11T05:58:23.743Z,21.17
2023-02-11T06:00:51.346Z,25.52
2023-02-11T06:03:18.866Z,24.30
2023-02-11T06:05:46.974Z,22.83
2023-02-11T06:10:44.922Z,22.60
2023-02-11T06:13:12.435Z,22.23
2023-02-11T06:15:39.892Z,21.15
2023-02-11T06:18:07.986Z,21.85
2023-02-11T06:20:35.630Z,22.08
2023-02-11T06:23:03.090Z,22.08
2023-02-11T06:25:30.542Z,17.80
2023-02-11T06:27:58.056Z,18.30
2023-02-11T06:30:25.668Z,21.98
2023-02-11T06:32:53.175Z,22.38
2023-02-11T06:35:20.645Z,20.02
2023-02-11T06:37:49.656Z,20.02
2023-02-11T06:40:17.250Z,19.00
2023-02-11T06:42:44.674Z,22.98
2023-02-11T06:45:13.289Z,18.08
2023-02-11T06:47:40.947Z,21.15
2023-02-11T06:50:12.678Z,17.50
2023-02-11T06:52:40.391Z,20.52
2023-02-11T06:55:08.149Z,17.65
2023-02-11T06:57:35.689Z,17.65
2023-02-11T07:00:05.428Z,19.10
2023-02-11T07:02:33.334Z,20.67
2023-02-11T07:05:00.951Z,18.50
2023-02-11T07:07:28.696Z,17.08
2023-02-11T07:09:56.130Z,22.17
2023-02-11T07:12:23.613Z,17.17
2023-02-11T07:14:51.041Z,23.52
2023-02-11T07:17:18.478Z,16.92
2023-02-11T07:19:45.928Z,17.20
2023-02-11T07:22:13.622Z,14.70
2023-02-11T07:24:41.055Z,22.60
2023-02-11T07:27:09.018Z,21.90
2023-02-11T07:29:36.524Z,14.80
2023-02-11T07:32:04.225Z,17.40
2023-02-11T07:34:31.897Z,19.08
2023-02-11T07:36:59.560Z,21.60
2023-02-11T07:39:29.716Z,16.85
2023-02-11T07:41:57.230Z,16.92
2023-02-11T07:46:53.250Z,16.90
2023-02-11T07:49:20.794Z,17.63
2023-02-11T07:51:49.154Z,16.27
2023-02-11T07:54:17.020Z,15.57
2023-02-11T07:56:44.473Z,13.30
2023-02-11T07:59:12.551Z,15.45
2023-02-11T08:04:07.276Z,16.38
2023-02-11T08:06:35.386Z,10.80
2023-02-11T08:11:34.922Z,11.85
2023-02-11T08:14:04.669Z,11.88
2023-02-11T08:16:35.343Z,12.10
2023-02-11T08:19:06.341Z,13.38
2023-02-11T08:21:33.870Z,14.80
2023-02-11T08:24:03.262Z,7.57
2023-02-11T08:26:34.370Z,10.85
2023-02-11T08:29:06.817Z,11.63
2023-02-11T08:31:37.364Z,10.93
2023-02-11T08:34:05.738Z,11.73
2023-02-11T08:36:35.968Z,14.35
2023-02-11T08:39:18.496Z,9.18
2023-02-11T08:41:49.602Z,8.48
2023-02-11T08:44:18.805Z,12.55
2023-02-11T08:46:46.830Z,11.90
2023-02-11T08:49:15.033Z,8.82
2023-02-11T08:54:10.510Z,9.02
2023-02-11T08:56:38.533Z,8.75
2023-02-11T08:59:07.189Z,8.73
2023-02-11T09:01:36.232Z,12.73
2023-02-11T09:04:03.673Z,7.40
2023-02-11T09:06:32.279Z,7.15
2023-02-11T09:08:59.838Z,8.57
2023-02-11T09:11:36.765Z,8.45
2023-02-11T09:14:05.015Z,7.45
2023-02-11T09:16:35.241Z,5.47
2023-02-11T09:19:04.857Z,7.22
2023-02-11T09:21:32.314Z,8.32
2023-02-11T09:23:59.810Z,7.78
2023-02-11T09:26:30.624Z,8.10
2023-02-11T09:28:58.775Z,11.02
2023-02-11T09:33:58.433Z,10.00
2023-02-11T09:36:28.996Z,9.30
2023-02-11T09:38:58.780Z,5.22
2023-02-11T09:41:44.850Z,6.82
2023-02-11T09:44:23.102Z,10.00
2023-02-11T09:46:55.876Z,7.80
2023-02-11T09:49:34.508Z,7.22
2023-02-11T09:52:15.185Z,7.07
2023-02-11T09:55:00.383Z,8.55
2023-02-11T09:57:37.489Z,6.25
2023-02-11T10:00:21.683Z,5.40
2023-02-11T10:03:25.946Z,8.43
2023-02-11T10:06:15.836Z,10.23
2023-02-11T10:08:51.923Z,7.75
2023-02-11T10:11:46.170Z,8.57
2023-02-11T10:14:53.873Z,5.97
2023-02-11T10:20:32.463Z,7.32
2023-02-11T10:23:39.257Z,6.20
2023-02-11T10:26:16.633Z,11.73
2023-02-11T10:28:50.980Z,8.32
2023-02-11T10:31:21.508Z,7.70
2023-02-11T10:34:11.330Z,6.95
2023-02-11T10:36:42.904Z,6.93
2023-02-11T10:39:21.790Z,5.38
2023-02-11T10:42:02.896Z,7.07
2023-02-11T10:44:36.311Z,9.43
2023-02-11T10:47:18.879Z,8.32
2023-02-11T10:49:49.070Z,7.28
2023-02-11T10:52:21.434Z,9.20
2023-02-11T10:54:59.648Z,10.82
2023-02-11T10:57:34.923Z,8.15
2023-02-11T11:00:38.898Z,7.18
2023-02-11T11:03:22.855Z,6.00
2023-02-11T11:05:59.826Z,6.05
2023-02-11T11:08:50.460Z,5.80
2023-02-11T11:11:21.284Z,4.90
2023-02-11T11:14:03.256Z,8.77
2023-02-11T11:16:33.195Z,5.95
2023-02-11T11:19:06.645Z,5.10
2023-02-11T11:21:43.889Z,9.68
2023-02-11T11:24:25.503Z,7.68
2023-02-11T11:27:00.877Z,6.93
2023-02-11T11:29:39.538Z,6.47
2023-02-11T11:32:32.471Z,7.47
2023-02-11T11:35:03.554Z,9.38
2023-02-11T11:37:36.609Z,9.70
2023-02-11T11:40:22.957Z,8.38
2023-02-11T11:43:12.449Z,9.25
2023-02-11T11:45:53.186Z,7.65
2023-02-11T11:48:38.367Z,8.13
2023-02-11T11:51:10.564Z,5.93
2023-02-11T11:53:59.703Z,7.13
2023-02-11T11:56:31.870Z,8.10
2023-02-11T11:59:03.695Z,6.63
2023-02-11T12:01:48.299Z,6.47
2023-02-11T12:04:47.750Z,7.72
2023-02-11T12:07:25.798Z,6.78
2023-02-11T12:10:15.124Z,6.95
2023-02-11T12:13:00.556Z,5.47
2023-02-11T12:15:33.894Z,9.13
2023-02-11T12:18:27.754Z,6.07
2023-02-11T12:21:07.254Z,7.25
2023-02-11T12:24:23.799Z,8.27
2023-02-11T12:27:15.751Z,6.97
2023-02-11T12:30:20.426Z,5.13
2023-02-11T12:33:03.110Z,5.88
2023-02-11T12:35:40.094Z,4.32
2023-02-11T12:38:33.569Z,7.35
2023-02-11T12:41:15.130Z,7.72
2023-02-11T12:43:45.680Z,9.48
2023-02-11T12:46:28.306Z,10.13
2023-02-11T12:49:31.522Z,8.93
2023-02-11T12:52:19.548Z,12.30
2023-02-11T12:55:15.091Z,10.05
2023-02-11T12:57:44.669Z,8.85
2023-02-11T13:00:24.709Z,8.27
2023-02-11T13:03:16.778Z,8.23
2023-02-11T13:05:58.722Z,7.60
2023-02-11T13:08:31.392Z,11.23
2023-02-11T13:11:08.010Z,8.63
2023-02-11T13:13:46.501Z,7.35
2023-02-11T13:16:35.248Z,7.75
2023-02-11T13:19:22.955Z,6.43
2023-02-11T13:21:59.276Z,8.95
2023-02-11T13:24:36.681Z,6.18
2023-02-11T13:27:07.288Z,9.98
2023-02-11T13:29:47.455Z,11.93
2023-02-11T13:32:15.822Z,7.65
2023-02-11T13:34:43.650Z,12.20
2023-02-11T13:37:32.805Z,11.95
2023-02-11T13:40:03.483Z,9.60
2023-02-11T13:42:33.985Z,8.35
2023-02-11T13:45:01.795Z,11.73
2023-02-11T13:47:33.411Z,10.13
2023-02-11T13:50:05.434Z,8.30
2023-02-11T13:52:37.352Z,7.82
2023-02-11T13:55:21.630Z,12.45
2023-02-11T13:58:07.473Z,9.70
2023-02-11T14:00:34.948Z,9.15
2023-02-11T14:03:29.980Z,10.60
2023-02-11T14:06:28.123Z,12.63
2023-02-11T14:09:07.074Z,10.32
2023-02-11T14:11:40.656Z,7.50
2023-02-11T14:14:21.729Z,8.20
2023-02-11T14:17:07.653Z,14.40
2023-02-11T14:19:36.440Z,10.30
2023-02-11T14:22:16.574Z,13.70
2023-02-11T14:24:47.052Z,10.93
2023-02-11T14:27:32.834Z,11.95
2023-02-11T14:30:18.705Z,12.13
